KITH/ITH METAR and TAF weather

Enter ICAO airport designator
Station Type Date Time Source
KITH METAR 2019/06/26 19:56 UTC NOAA

KITH 261956Z 30013KT 10SM BKN060 29/18 A3001 RMK AO2 SLP155 T02890178


Station Type Date Time Source
KITH Decoded METAR 2019/06/26 19:56 UTC NOAA

Ithaca, Ithaca Tompkins Regional Airport, NY, United States (KITH) 42-29-27N 076-27-30W
Jun 26, 2019 - 03:56 PM EDT / 2019.06.26 1956 UTC
Wind: from the WNW (300 degrees) at 15 MPH (13 KT):0
Visibility: 10 mile(s):0
Sky conditions: mostly cloudy
Temperature: 84.0 F (28.9 C)
Dew Point: 64.0 F (17.8 C)
Relative Humidity: 51%
Pressure (altimeter): 30.01 in. Hg (1016 hPa)
ob: KITH 261956Z 30013KT 10SM BKN060 29/18 A3001 RMK AO2 SLP155 T02890178
cycle: 20

Station Type Date Time Source
KITH TAF 2019/06/26 18:22 UTC NOAA

TAF KITH 261720Z 2618/2718 25008KT P6SM BKN090
TEMPO 2619/2621 25010G20KT 4SM -TSRA BKN035CB
FM262100 31005KT P6SM BKN070
FM271500 30010KT P6SM FEW035

Example: see airport list